Avery, Iowa
Current Conditions -  °F | °C
As of 2:53 PM on Thursday 27 Nov 2014 (Local Time) from KOTM Reporting Station
Clear Clear  
Wind Chill:   Ceiling: Unl
Heat Index: 14°   Visibility: 10mi
Dew Point:   Wind: 12mph
Humidity: 56%   Direction: 350°N
Pressure: 30.46"   Gusts: NA
Location:  41.0299°N, 92.7795°W
Report Text: KOTM 272053Z AUTO 35010KT 10SM CLR M10/M17 A3046 RMK AO2 SLP331 T11001172 56016
Loading
Personal Weather Stations






























Interactive Weather Map New forecast layout! Learn more

10-Day Weather Forecast

Advertisements
Track Severe Weather on mobile